sensor_id;sensor_type;location;lat;lon;timestamp;P1;durP1;ratioP1;P2;durP2;ratioP2
30970;SDS011;17651;52.262;10.498;2023-03-20T00:01:13;7.70;;;6.38;;
30970;SDS011;17651;52.262;10.498;2023-03-20T00:03:24;7.15;;;5.90;;
30970;SDS011;17651;52.262;10.498;2023-03-20T00:05:35;8.13;;;5.85;;
30970;SDS011;17651;52.262;10.498;2023-03-20T00:07:47;11.10;;;5.72;;
30970;SDS011;17651;52.262;10.498;2023-03-20T00:09:58;8.35;;;5.50;;
30970;SDS011;17651;52.262;10.498;2023-03-20T00:12:13;6.82;;;5.70;;
30970;SDS011;17651;52.262;10.498;2023-03-20T00:14:25;7.20;;;5.80;;
30970;SDS011;17651;52.262;10.498;2023-03-20T00:16:37;6.63;;;5.72;;
30970;SDS011;17651;52.262;10.498;2023-03-20T00:18:48;8.68;;;5.90;;
30970;SDS011;17651;52.262;10.498;2023-03-20T00:21:00;7.18;;;6.05;;
30970;SDS011;17651;52.262;10.498;2023-03-20T00:23:11;8.20;;;5.78;;
30970;SDS011;17651;52.262;10.498;2023-03-20T00:25:22;7.82;;;5.95;;
30970;SDS011;17651;52.262;10.498;2023-03-20T00:27:34;11.35;;;5.85;;
30970;SDS011;17651;52.262;10.498;2023-03-20T00:29:45;7.78;;;5.25;;
30970;SDS011;17651;52.262;10.498;2023-03-20T00:31:56;6.05;;;5.30;;
30970;SDS011;17651;52.262;10.498;2023-03-20T00:34:12;6.85;;;6.05;;
30970;SDS011;17651;52.262;10.498;2023-03-20T00:36:23;8.15;;;5.47;;
30970;SDS011;17651;52.262;10.498;2023-03-20T00:38:35;9.13;;;5.97;;
30970;SDS011;17651;52.262;10.498;2023-03-20T00:40:46;6.68;;;5.85;;
30970;SDS011;17651;52.262;10.498;2023-03-20T00:43:01;6.75;;;5.68;;
30970;SDS011;17651;52.262;10.498;2023-03-20T00:45:14;6.22;;;5.28;;
30970;SDS011;17651;52.262;10.498;2023-03-20T00:47:27;5.75;;;5.15;;
30970;SDS011;17651;52.262;10.498;2023-03-20T00:49:39;8.98;;;5.65;;
30970;SDS011;17651;52.262;10.498;2023-03-20T00:51:50;8.13;;;6.05;;
30970;SDS011;17651;52.262;10.498;2023-03-20T00:54:04;8.52;;;5.80;;
30970;SDS011;17651;52.262;10.498;2023-03-20T00:56:27;7.43;;;5.60;;
30970;SDS011;17651;52.262;10.498;2023-03-20T00:58:40;7.97;;;6.07;;
30970;SDS011;17651;52.262;10.498;2023-03-20T01:00:51;10.05;;;6.65;;
30970;SDS011;17651;52.262;10.498;2023-03-20T01:03:10;9.55;;;6.30;;
30970;SDS011;17651;52.262;10.498;2023-03-20T01:05:25;8.00;;;6.40;;
30970;SDS011;17651;52.262;10.498;2023-03-20T01:07:38;9.40;;;6.55;;
30970;SDS011;17651;52.262;10.498;2023-03-20T01:09:49;9.40;;;6.90;;
30970;SDS011;17651;52.262;10.498;2023-03-20T01:12:02;9.88;;;7.28;;
30970;SDS011;17651;52.262;10.498;2023-03-20T01:14:14;10.68;;;7.90;;
30970;SDS011;17651;52.262;10.498;2023-03-20T01:16:25;9.23;;;6.85;;
30970;SDS011;17651;52.262;10.498;2023-03-20T01:18:37;10.45;;;7.57;;
30970;SDS011;17651;52.262;10.498;2023-03-20T01:20:48;10.30;;;7.78;;
30970;SDS011;17651;52.262;10.498;2023-03-20T01:22:59;11.85;;;7.53;;
30970;SDS011;17651;52.262;10.498;2023-03-20T01:25:10;10.45;;;8.32;;
30970;SDS011;17651;52.262;10.498;2023-03-20T01:27:21;12.55;;;8.75;;
30970;SDS011;17651;52.262;10.498;2023-03-20T01:29:32;12.50;;;9.02;;
30970;SDS011;17651;52.262;10.498;2023-03-20T01:31:44;12.05;;;9.07;;
30970;SDS011;17651;52.262;10.498;2023-03-20T01:33:55;15.30;;;9.27;;
30970;SDS011;17651;52.262;10.498;2023-03-20T01:36:10;16.98;;;9.90;;
30970;SDS011;17651;52.262;10.498;2023-03-20T01:38:22;15.05;;;10.73;;
30970;SDS011;17651;52.262;10.498;2023-03-20T01:42:47;18.67;;;12.38;;
30970;SDS011;17651;52.262;10.498;2023-03-20T01:44:58;20.52;;;12.45;;
30970;SDS011;17651;52.262;10.498;2023-03-20T01:47:15;27.30;;;15.20;;
30970;SDS011;17651;52.262;10.498;2023-03-20T01:51:41;27.38;;;15.95;;
30970;SDS011;17651;52.262;10.498;2023-03-20T01:53:56;24.60;;;15.77;;
30970;SDS011;17651;52.262;10.498;2023-03-20T01:56:08;25.95;;;17.02;;
30970;SDS011;17651;52.262;10.498;2023-03-20T01:58:30;34.40;;;20.75;;
30970;SDS011;17651;52.262;10.498;2023-03-20T02:00:42;39.95;;;23.05;;
30970;SDS011;17651;52.262;10.498;2023-03-20T02:02:58;37.50;;;22.30;;
30970;SDS011;17651;52.262;10.498;2023-03-20T02:05:29;35.78;;;20.50;;
30970;SDS011;17651;52.262;10.498;2023-03-20T02:07:41;34.25;;;20.30;;
30970;SDS011;17651;52.262;10.498;2023-03-20T02:09:58;33.05;;;20.77;;
30970;SDS011;17651;52.262;10.498;2023-03-20T02:12:20;36.28;;;22.35;;
30970;SDS011;17651;52.262;10.498;2023-03-20T02:14:32;36.13;;;22.98;;
30970;SDS011;17651;52.262;10.498;2023-03-20T02:16:53;32.85;;;21.15;;
30970;SDS011;17651;52.262;10.498;2023-03-20T02:21:50;32.25;;;20.55;;
30970;SDS011;17651;52.262;10.498;2023-03-20T02:26:30;33.78;;;21.33;;
30970;SDS011;17651;52.262;10.498;2023-03-20T02:41:16;41.03;;;21.42;;
30970;SDS011;17651;52.262;10.498;2023-03-20T02:46:05;47.10;;;24.00;;
30970;SDS011;17651;52.262;10.498;2023-03-20T02:48:35;46.17;;;23.90;;
30970;SDS011;17651;52.262;10.498;2023-03-20T02:50:50;47.70;;;24.90;;
30970;SDS011;17651;52.262;10.498;2023-03-20T02:55:51;46.25;;;24.33;;
30970;SDS011;17651;52.262;10.498;2023-03-20T03:02:36;48.35;;;25.95;;
30970;SDS011;17651;52.262;10.498;2023-03-20T03:04:52;49.05;;;24.75;;
30970;SDS011;17651;52.262;10.498;2023-03-20T03:07:06;49.50;;;25.00;;
30970;SDS011;17651;52.262;10.498;2023-03-20T03:09:20;51.17;;;24.13;;
30970;SDS011;17651;52.262;10.498;2023-03-20T03:11:33;53.22;;;25.63;;
30970;SDS011;17651;52.262;10.498;2023-03-20T03:13:48;50.25;;;25.60;;
30970;SDS011;17651;52.262;10.498;2023-03-20T03:16:01;54.90;;;26.52;;
30970;SDS011;17651;52.262;10.498;2023-03-20T03:18:16;53.05;;;27.00;;
30970;SDS011;17651;52.262;10.498;2023-03-20T03:20:30;55.65;;;27.58;;
30970;SDS011;17651;52.262;10.498;2023-03-20T03:22:43;57.35;;;27.00;;
30970;SDS011;17651;52.262;10.498;2023-03-20T03:24:55;54.85;;;26.13;;
30970;SDS011;17651;52.262;10.498;2023-03-20T03:27:10;57.58;;;28.25;;
30970;SDS011;17651;52.262;10.498;2023-03-20T03:29:23;49.40;;;24.75;;
30970;SDS011;17651;52.262;10.498;2023-03-20T03:31:35;61.83;;;27.83;;
30970;SDS011;17651;52.262;10.498;2023-03-20T03:33:48;55.78;;;25.90;;
30970;SDS011;17651;52.262;10.498;2023-03-20T03:38:31;60.08;;;28.23;;
30970;SDS011;17651;52.262;10.498;2023-03-20T03:40:55;63.92;;;30.58;;
30970;SDS011;17651;52.262;10.498;2023-03-20T03:45:38;59.45;;;27.98;;
30970;SDS011;17651;52.262;10.498;2023-03-20T03:50:27;64.63;;;28.00;;
30970;SDS011;17651;52.262;10.498;2023-03-20T03:52:42;63.65;;;29.27;;
30970;SDS011;17651;52.262;10.498;2023-03-20T03:55:03;67.13;;;29.00;;
30970;SDS011;17651;52.262;10.498;2023-03-20T03:57:17;60.35;;;27.77;;
30970;SDS011;17651;52.262;10.498;2023-03-20T03:59:35;55.08;;;25.90;;
30970;SDS011;17651;52.262;10.498;2023-03-20T04:01:48;60.05;;;24.98;;
30970;SDS011;17651;52.262;10.498;2023-03-20T04:04:00;54.40;;;25.85;;
30970;SDS011;17651;52.262;10.498;2023-03-20T04:06:12;52.72;;;23.92;;
30970;SDS011;17651;52.262;10.498;2023-03-20T04:08:25;45.78;;;22.92;;
30970;SDS011;17651;52.262;10.498;2023-03-20T04:10:36;53.28;;;25.83;;
30970;SDS011;17651;52.262;10.498;2023-03-20T04:12:47;51.17;;;24.17;;
30970;SDS011;17651;52.262;10.498;2023-03-20T04:14:58;50.63;;;25.30;;
30970;SDS011;17651;52.262;10.498;2023-03-20T04:17:11;49.63;;;22.27;;
30970;SDS011;17651;52.262;10.498;2023-03-20T04:19:22;48.25;;;23.25;;
30970;SDS011;17651;52.262;10.498;2023-03-20T04:21:33;48.67;;;22.33;;
30970;SDS011;17651;52.262;10.498;2023-03-20T04:23:44;44.90;;;20.65;;
30970;SDS011;17651;52.262;10.498;2023-03-20T04:25:56;47.88;;;22.23;;
30970;SDS011;17651;52.262;10.498;2023-03-20T04:28:07;50.00;;;20.63;;
30970;SDS011;17651;52.262;10.498;2023-03-20T04:30:26;43.15;;;19.15;;
30970;SDS011;17651;52.262;10.498;2023-03-20T04:32:56;47.45;;;20.73;;
30970;SDS011;17651;52.262;10.498;2023-03-20T04:35:18;43.63;;;19.63;;
30970;SDS011;17651;52.262;10.498;2023-03-20T04:37:41;48.00;;;20.85;;
30970;SDS011;17651;52.262;10.498;2023-03-20T04:39:52;40.30;;;19.88;;
30970;SDS011;17651;52.262;10.498;2023-03-20T04:42:04;44.60;;;20.85;;
30970;SDS011;17651;52.262;10.498;2023-03-20T04:44:15;38.67;;;19.08;;
30970;SDS011;17651;52.262;10.498;2023-03-20T04:46:28;47.78;;;22.55;;
30970;SDS011;17651;52.262;10.498;2023-03-20T04:48:40;45.53;;;21.83;;
30970;SDS011;17651;52.262;10.498;2023-03-20T04:50:52;46.05;;;21.98;;
30970;SDS011;17651;52.262;10.498;2023-03-20T04:53:08;47.20;;;22.15;;
30970;SDS011;17651;52.262;10.498;2023-03-20T04:55:19;44.65;;;20.52;;
30970;SDS011;17651;52.262;10.498;2023-03-20T04:57:32;42.65;;;20.77;;
30970;SDS011;17651;52.262;10.498;2023-03-20T04:59:43;46.85;;;20.85;;
30970;SDS011;17651;52.262;10.498;2023-03-20T05:01:55;44.65;;;20.75;;
30970;SDS011;17651;52.262;10.498;2023-03-20T05:04:06;39.58;;;20.60;;
30970;SDS011;17651;52.262;10.498;2023-03-20T05:06:17;47.75;;;21.30;;
30970;SDS011;17651;52.262;10.498;2023-03-20T05:08:29;45.15;;;20.92;;
30970;SDS011;17651;52.262;10.498;2023-03-20T05:10:43;42.72;;;19.60;;
30970;SDS011;17651;52.262;10.498;2023-03-20T05:13:17;43.90;;;20.92;;
30970;SDS011;17651;52.262;10.498;2023-03-20T05:15:43;42.42;;;20.95;;
30970;SDS011;17651;52.262;10.498;2023-03-20T05:18:03;42.60;;;20.23;;
30970;SDS011;17651;52.262;10.498;2023-03-20T05:20:34;38.08;;;19.50;;
30970;SDS011;17651;52.262;10.498;2023-03-20T05:22:49;45.17;;;21.27;;
30970;SDS011;17651;52.262;10.498;2023-03-20T05:25:19;39.35;;;18.63;;
30970;SDS011;17651;52.262;10.498;2023-03-20T05:27:50;45.70;;;20.15;;
30970;SDS011;17651;52.262;10.498;2023-03-20T05:33:07;41.88;;;19.52;;
30970;SDS011;17651;52.262;10.498;2023-03-20T05:35:35;45.80;;;20.67;;
30970;SDS011;17651;52.262;10.498;2023-03-20T05:38:10;43.50;;;20.75;;
30970;SDS011;17651;52.262;10.498;2023-03-20T05:40:29;45.97;;;20.17;;
30970;SDS011;17651;52.262;10.498;2023-03-20T05:42:58;42.15;;;18.67;;
30970;SDS011;17651;52.262;10.498;2023-03-20T05:45:18;47.35;;;21.40;;
30970;SDS011;17651;52.262;10.498;2023-03-20T05:47:29;45.17;;;20.23;;
30970;SDS011;17651;52.262;10.498;2023-03-20T05:49:40;39.55;;;19.13;;
30970;SDS011;17651;52.262;10.498;2023-03-20T05:52:14;40.53;;;18.33;;
30970;SDS011;17651;52.262;10.498;2023-03-20T05:54:44;39.00;;;19.23;;
30970;SDS011;17651;52.262;10.498;2023-03-20T05:57:09;39.15;;;19.05;;
30970;SDS011;17651;52.262;10.498;2023-03-20T05:59:35;38.83;;;18.60;;
30970;SDS011;17651;52.262;10.498;2023-03-20T06:02:09;38.13;;;18.20;;
30970;SDS011;17651;52.262;10.498;2023-03-20T06:04:24;36.05;;;18.23;;
30970;SDS011;17651;52.262;10.498;2023-03-20T06:07:01;35.60;;;18.60;;
30970;SDS011;17651;52.262;10.498;2023-03-20T06:09:13;38.60;;;19.48;;
30970;SDS011;17651;52.262;10.498;2023-03-20T06:11:24;37.15;;;18.65;;
30970;SDS011;17651;52.262;10.498;2023-03-20T06:13:36;34.30;;;19.10;;
30970;SDS011;17651;52.262;10.498;2023-03-20T06:15:47;35.65;;;19.38;;
30970;SDS011;17651;52.262;10.498;2023-03-20T06:18:01;39.35;;;18.42;;
30970;SDS011;17651;52.262;10.498;2023-03-20T06:20:12;36.05;;;18.15;;
30970;SDS011;17651;52.262;10.498;2023-03-20T06:22:23;33.95;;;16.45;;
30970;SDS011;17651;52.262;10.498;2023-03-20T06:24:35;33.35;;;18.27;;
30970;SDS011;17651;52.262;10.498;2023-03-20T06:26:47;40.08;;;19.75;;
30970;SDS011;17651;52.262;10.498;2023-03-20T06:28:58;36.50;;;17.83;;
30970;SDS011;17651;52.262;10.498;2023-03-20T06:31:09;35.85;;;17.63;;
30970;SDS011;17651;52.262;10.498;2023-03-20T06:33:20;44.65;;;17.98;;
30970;SDS011;17651;52.262;10.498;2023-03-20T06:37:51;36.35;;;17.67;;
30970;SDS011;17651;52.262;10.498;2023-03-20T06:40:07;36.95;;;19.10;;
30970;SDS011;17651;52.262;10.498;2023-03-20T06:42:20;35.58;;;18.85;;
30970;SDS011;17651;52.262;10.498;2023-03-20T06:44:32;37.35;;;18.05;;
30970;SDS011;17651;52.262;10.498;2023-03-20T06:47:08;38.80;;;17.48;;
30970;SDS011;17651;52.262;10.498;2023-03-20T06:49:20;38.08;;;18.20;;
30970;SDS011;17651;52.262;10.498;2023-03-20T06:51:31;38.40;;;18.38;;
30970;SDS011;17651;52.262;10.498;2023-03-20T06:53:42;43.13;;;19.60;;
30970;SDS011;17651;52.262;10.498;2023-03-20T06:55:59;39.05;;;18.67;;
30970;SDS011;17651;52.262;10.498;2023-03-20T06:58:10;37.65;;;18.77;;
30970;SDS011;17651;52.262;10.498;2023-03-20T07:00:22;41.88;;;18.65;;
30970;SDS011;17651;52.262;10.498;2023-03-20T07:02:33;38.05;;;19.33;;
30970;SDS011;17651;52.262;10.498;2023-03-20T07:04:45;41.10;;;19.05;;
30970;SDS011;17651;52.262;10.498;2023-03-20T07:06:57;38.10;;;18.42;;
30970;SDS011;17651;52.262;10.498;2023-03-20T07:09:09;44.30;;;19.17;;
30970;SDS011;17651;52.262;10.498;2023-03-20T07:11:20;40.28;;;18.73;;
30970;SDS011;17651;52.262;10.498;2023-03-20T07:13:32;38.53;;;19.35;;
30970;SDS011;17651;52.262;10.498;2023-03-20T07:15:50;38.63;;;19.15;;
30970;SDS011;17651;52.262;10.498;2023-03-20T07:18:05;43.08;;;19.42;;
30970;SDS011;17651;52.262;10.498;2023-03-20T07:20:16;39.50;;;18.60;;
30970;SDS011;17651;52.262;10.498;2023-03-20T07:22:29;39.30;;;19.50;;
30970;SDS011;17651;52.262;10.498;2023-03-20T07:24:57;43.55;;;19.75;;
30970;SDS011;17651;52.262;10.498;2023-03-20T07:27:09;38.83;;;18.77;;
30970;SDS011;17651;52.262;10.498;2023-03-20T07:29:20;42.65;;;20.27;;
30970;SDS011;17651;52.262;10.498;2023-03-20T07:31:31;39.30;;;18.95;;
30970;SDS011;17651;52.262;10.498;2023-03-20T07:33:56;47.78;;;20.80;;
30970;SDS011;17651;52.262;10.498;2023-03-20T07:36:07;40.03;;;19.40;;
30970;SDS011;17651;52.262;10.498;2023-03-20T07:38:18;43.90;;;19.70;;
30970;SDS011;17651;52.262;10.498;2023-03-20T07:40:38;44.83;;;19.98;;
30970;SDS011;17651;52.262;10.498;2023-03-20T07:42:54;44.80;;;20.42;;
30970;SDS011;17651;52.262;10.498;2023-03-20T07:47:35;40.33;;;19.90;;
30970;SDS011;17651;52.262;10.498;2023-03-20T07:49:48;40.78;;;19.98;;
30970;SDS011;17651;52.262;10.498;2023-03-20T07:51:59;45.28;;;19.45;;
30970;SDS011;17651;52.262;10.498;2023-03-20T07:54:10;40.60;;;18.90;;
30970;SDS011;17651;52.262;10.498;2023-03-20T07:56:22;45.67;;;20.08;;
30970;SDS011;17651;52.262;10.498;2023-03-20T07:58:33;44.00;;;20.45;;
30970;SDS011;17651;52.262;10.498;2023-03-20T08:00:45;44.35;;;19.80;;
30970;SDS011;17651;52.262;10.498;2023-03-20T08:02:56;46.95;;;20.70;;
30970;SDS011;17651;52.262;10.498;2023-03-20T08:05:07;45.45;;;19.95;;
30970;SDS011;17651;52.262;10.498;2023-03-20T08:07:19;38.60;;;19.05;;
30970;SDS011;17651;52.262;10.498;2023-03-20T08:09:30;47.50;;;21.65;;
30970;SDS011;17651;52.262;10.498;2023-03-20T08:11:41;45.97;;;21.20;;
30970;SDS011;17651;52.262;10.498;2023-03-20T08:13:52;51.67;;;20.90;;
30970;SDS011;17651;52.262;10.498;2023-03-20T08:16:03;45.80;;;19.48;;
30970;SDS011;17651;52.262;10.498;2023-03-20T08:18:15;44.40;;;20.55;;
30970;SDS011;17651;52.262;10.498;2023-03-20T08:20:26;39.33;;;19.23;;
30970;SDS011;17651;52.262;10.498;2023-03-20T08:22:37;44.88;;;21.08;;
30970;SDS011;17651;52.262;10.498;2023-03-20T08:24:48;43.65;;;21.10;;
30970;SDS011;17651;52.262;10.498;2023-03-20T08:26:59;46.58;;;21.15;;
30970;SDS011;17651;52.262;10.498;2023-03-20T08:29:10;46.70;;;21.17;;
30970;SDS011;17651;52.262;10.498;2023-03-20T08:31:21;54.10;;;22.42;;
30970;SDS011;17651;52.262;10.498;2023-03-20T08:33:32;48.05;;;22.15;;
30970;SDS011;17651;52.262;10.498;2023-03-20T08:35:53;48.90;;;21.73;;
30970;SDS011;17651;52.262;10.498;2023-03-20T08:38:04;44.13;;;20.48;;
30970;SDS011;17651;52.262;10.498;2023-03-20T08:40:16;49.65;;;21.73;;
30970;SDS011;17651;52.262;10.498;2023-03-20T08:42:27;54.67;;;23.15;;
30970;SDS011;17651;52.262;10.498;2023-03-20T08:44:38;50.30;;;23.42;;
30970;SDS011;17651;52.262;10.498;2023-03-20T08:46:49;49.08;;;21.98;;
30970;SDS011;17651;52.262;10.498;2023-03-20T08:49:00;52.22;;;23.23;;
30970;SDS011;17651;52.262;10.498;2023-03-20T08:51:11;45.10;;;21.55;;
30970;SDS011;17651;52.262;10.498;2023-03-20T08:53:22;49.45;;;22.33;;
30970;SDS011;17651;52.262;10.498;2023-03-20T08:55:33;39.45;;;19.05;;
30970;SDS011;17651;52.262;10.498;2023-03-20T08:57:45;45.72;;;21.10;;
30970;SDS011;17651;52.262;10.498;2023-03-20T08:59:56;41.30;;;20.35;;
30970;SDS011;17651;52.262;10.498;2023-03-20T09:02:08;42.88;;;20.88;;
30970;SDS011;17651;52.262;10.498;2023-03-20T09:04:20;36.20;;;19.65;;
30970;SDS011;17651;52.262;10.498;2023-03-20T09:06:31;41.75;;;21.23;;
30970;SDS011;17651;52.262;10.498;2023-03-20T09:08:45;41.70;;;21.45;;
30970;SDS011;17651;52.262;10.498;2023-03-20T09:10:56;40.95;;;21.60;;
30970;SDS011;17651;52.262;10.498;2023-03-20T09:13:07;39.92;;;20.30;;
30970;SDS011;17651;52.262;10.498;2023-03-20T09:15:19;34.67;;;19.95;;
30970;SDS011;17651;52.262;10.498;2023-03-20T09:17:30;35.45;;;18.75;;
30970;SDS011;17651;52.262;10.498;2023-03-20T09:19:41;32.47;;;18.17;;
30970;SDS011;17651;52.262;10.498;2023-03-20T09:21:53;35.80;;;19.65;;
30970;SDS011;17651;52.262;10.498;2023-03-20T09:24:05;33.63;;;17.88;;
30970;SDS011;17651;52.262;10.498;2023-03-20T09:26:16;37.50;;;18.92;;
30970;SDS011;17651;52.262;10.498;2023-03-20T09:28:27;37.20;;;19.98;;
30970;SDS011;17651;52.262;10.498;2023-03-20T09:30:38;42.65;;;20.35;;
30970;SDS011;17651;52.262;10.498;2023-03-20T09:32:52;34.63;;;19.50;;
30970;SDS011;17651;52.262;10.498;2023-03-20T09:35:03;39.30;;;20.10;;
30970;SDS011;17651;52.262;10.498;2023-03-20T09:37:15;35.20;;;18.48;;
30970;SDS011;17651;52.262;10.498;2023-03-20T09:39:26;34.80;;;19.52;;
30970;SDS011;17651;52.262;10.498;2023-03-20T09:41:37;39.30;;;20.35;;
30970;SDS011;17651;52.262;10.498;2023-03-20T09:43:53;36.05;;;20.38;;
30970;SDS011;17651;52.262;10.498;2023-03-20T09:50:54;33.47;;;19.42;;
30970;SDS011;17651;52.262;10.498;2023-03-20T09:53:17;38.78;;;20.48;;
30970;SDS011;17651;52.262;10.498;2023-03-20T09:55:31;41.08;;;19.85;;
30970;SDS011;17651;52.262;10.498;2023-03-20T09:57:48;38.70;;;21.08;;
30970;SDS011;17651;52.262;10.498;2023-03-20T10:00:03;40.60;;;19.83;;
30970;SDS011;17651;52.262;10.498;2023-03-20T10:02:28;42.03;;;22.75;;
30970;SDS011;17651;52.262;10.498;2023-03-20T10:06:53;43.60;;;20.20;;
30970;SDS011;17651;52.262;10.498;2023-03-20T10:09:13;39.85;;;21.20;;
30970;SDS011;17651;52.262;10.498;2023-03-20T10:21:43;40.22;;;19.15;;
30970;SDS011;17651;52.262;10.498;2023-03-20T10:24:03;38.15;;;18.90;;
30970;SDS011;17651;52.262;10.498;2023-03-20T10:26:15;40.55;;;20.95;;
30970;SDS011;17651;52.262;10.498;2023-03-20T10:28:35;40.75;;;19.25;;
30970;SDS011;17651;52.262;10.498;2023-03-20T10:31:32;34.92;;;19.48;;
30970;SDS011;17651;52.262;10.498;2023-03-20T10:40:26;40.40;;;20.35;;
30970;SDS011;17651;52.262;10.498;2023-03-20T10:42:39;33.70;;;17.83;;
30970;SDS011;17651;52.262;10.498;2023-03-20T10:44:53;41.15;;;20.05;;
30970;SDS011;17651;52.262;10.498;2023-03-20T10:47:06;35.05;;;18.20;;
30970;SDS011;17651;52.262;10.498;2023-03-20T10:51:55;32.15;;;18.38;;
30970;SDS011;17651;52.262;10.498;2023-03-20T10:54:20;34.45;;;17.83;;
30970;SDS011;17651;52.262;10.498;2023-03-20T10:56:39;32.13;;;17.35;;
30970;SDS011;17651;52.262;10.498;2023-03-20T10:58:52;36.72;;;19.35;;
30970;SDS011;17651;52.262;10.498;2023-03-20T11:01:06;31.95;;;18.10;;
30970;SDS011;17651;52.262;10.498;2023-03-20T11:03:27;36.72;;;20.05;;
30970;SDS011;17651;52.262;10.498;2023-03-20T11:05:39;38.50;;;19.80;;
30970;SDS011;17651;52.262;10.498;2023-03-20T11:07:58;38.15;;;21.52;;
30970;SDS011;17651;52.262;10.498;2023-03-20T11:10:12;35.10;;;19.30;;
30970;SDS011;17651;52.262;10.498;2023-03-20T11:12:26;40.15;;;23.20;;
30970;SDS011;17651;52.262;10.498;2023-03-20T11:14:41;38.38;;;21.30;;
30970;SDS011;17651;52.262;10.498;2023-03-20T11:16:53;40.97;;;23.38;;
30970;SDS011;17651;52.262;10.498;2023-03-20T11:19:05;41.65;;;22.40;;
30970;SDS011;17651;52.262;10.498;2023-03-20T11:21:27;41.92;;;22.92;;
30970;SDS011;17651;52.262;10.498;2023-03-20T11:23:38;42.67;;;23.30;;
30970;SDS011;17651;52.262;10.498;2023-03-20T11:25:57;44.92;;;23.42;;
30970;SDS011;17651;52.262;10.498;2023-03-20T11:28:18;42.15;;;22.35;;
30970;SDS011;17651;52.262;10.498;2023-03-20T11:30:29;51.20;;;25.35;;
30970;SDS011;17651;52.262;10.498;2023-03-20T11:32:44;47.97;;;24.88;;
30970;SDS011;17651;52.262;10.498;2023-03-20T11:34:56;44.97;;;25.48;;
30970;SDS011;17651;52.262;10.498;2023-03-20T11:37:23;46.97;;;24.95;;
30970;SDS011;17651;52.262;10.498;2023-03-20T11:39:34;44.03;;;25.20;;
30970;SDS011;17651;52.262;10.498;2023-03-20T11:41:49;34.58;;;21.80;;
30970;SDS011;17651;52.262;10.498;2023-03-20T11:44:01;34.40;;;20.95;;
30970;SDS011;17651;52.262;10.498;2023-03-20T11:46:12;28.08;;;18.58;;
30970;SDS011;17651;52.262;10.498;2023-03-20T11:48:24;31.85;;;20.10;;
30970;SDS011;17651;52.262;10.498;2023-03-20T11:50:37;30.48;;;19.38;;
30970;SDS011;17651;52.262;10.498;2023-03-20T11:52:51;25.67;;;18.33;;
30970;SDS011;17651;52.262;10.498;2023-03-20T11:55:16;28.10;;;18.85;;
30970;SDS011;17651;52.262;10.498;2023-03-20T11:57:41;26.73;;;17.65;;
30970;SDS011;17651;52.262;10.498;2023-03-20T11:59:55;23.80;;;17.17;;
30970;SDS011;17651;52.262;10.498;2023-03-20T12:02:15;28.45;;;17.42;;
30970;SDS011;17651;52.262;10.498;2023-03-20T12:04:34;24.73;;;15.95;;
30970;SDS011;17651;52.262;10.498;2023-03-20T12:09:09;23.65;;;16.75;;
30970;SDS011;17651;52.262;10.498;2023-03-20T12:13:51;22.08;;;16.60;;
30970;SDS011;17651;52.262;10.498;2023-03-20T12:16:04;24.08;;;16.23;;
30970;SDS011;17651;52.262;10.498;2023-03-20T12:18:21;25.67;;;17.70;;
30970;SDS011;17651;52.262;10.498;2023-03-20T12:20:39;24.05;;;16.98;;
30970;SDS011;17651;52.262;10.498;2023-03-20T12:22:53;24.23;;;17.13;;
30970;SDS011;17651;52.262;10.498;2023-03-20T12:25:25;22.65;;;16.52;;
30970;SDS011;17651;52.262;10.498;2023-03-20T12:27:42;19.60;;;15.27;;
30970;SDS011;17651;52.262;10.498;2023-03-20T12:30:03;22.30;;;15.55;;
30970;SDS011;17651;52.262;10.498;2023-03-20T12:36:43;23.42;;;16.45;;
30970;SDS011;17651;52.262;10.498;2023-03-20T12:38:55;20.17;;;14.45;;
30970;SDS011;17651;52.262;10.498;2023-03-20T12:41:10;16.80;;;13.18;;
30970;SDS011;17651;52.262;10.498;2023-03-20T12:43:25;20.05;;;14.15;;
30970;SDS011;17651;52.262;10.498;2023-03-20T12:45:37;18.08;;;15.13;;
30970;SDS011;17651;52.262;10.498;2023-03-20T12:48:05;18.85;;;13.93;;
30970;SDS011;17651;52.262;10.498;2023-03-20T12:59:42;18.90;;;14.13;;
30970;SDS011;17651;52.262;10.498;2023-03-20T13:04:48;20.23;;;14.48;;
30970;SDS011;17651;52.262;10.498;2023-03-20T13:07:00;18.05;;;13.98;;
30970;SDS011;17651;52.262;10.498;2023-03-20T13:09:18;20.40;;;14.77;;
30970;SDS011;17651;52.262;10.498;2023-03-20T13:13:48;21.00;;;14.80;;
30970;SDS011;17651;52.262;10.498;2023-03-20T13:20:30;18.73;;;14.35;;
30970;SDS011;17651;52.262;10.498;2023-03-20T13:27:41;19.58;;;15.32;;
30970;SDS011;17651;52.262;10.498;2023-03-20T13:32:23;23.73;;;16.73;;
30970;SDS011;17651;52.262;10.498;2023-03-20T13:38:05;20.92;;;15.75;;
30970;SDS011;17651;52.262;10.498;2023-03-20T13:39:58;21.55;;;15.40;;
30970;SDS011;17651;52.262;10.498;2023-03-20T13:42:14;21.23;;;15.90;;
30970;SDS011;17651;52.262;10.498;2023-03-20T13:44:27;20.10;;;15.23;;
30970;SDS011;17651;52.262;10.498;2023-03-20T13:46:43;19.17;;;15.00;;
30970;SDS011;17651;52.262;10.498;2023-03-20T13:48:56;19.15;;;14.80;;
30970;SDS011;17651;52.262;10.498;2023-03-20T13:58:22;22.60;;;14.55;;
30970;SDS011;17651;52.262;10.498;2023-03-20T14:03:16;15.93;;;13.48;;
30970;SDS011;17651;52.262;10.498;2023-03-20T14:05:28;14.68;;;13.18;;
30970;SDS011;17651;52.262;10.498;2023-03-20T14:07:44;17.63;;;14.52;;
30970;SDS011;17651;52.262;10.498;2023-03-20T14:09:56;14.70;;;13.25;;
30970;SDS011;17651;52.262;10.498;2023-03-20T14:12:08;16.87;;;13.70;;
30970;SDS011;17651;52.262;10.498;2023-03-20T14:16:33;15.40;;;11.65;;
30970;SDS011;17651;52.262;10.498;2023-03-20T14:18:46;19.23;;;13.82;;
30970;SDS011;17651;52.262;10.498;2023-03-20T14:20:59;14.18;;;12.48;;
30970;SDS011;17651;52.262;10.498;2023-03-20T14:23:15;15.70;;;12.90;;
30970;SDS011;17651;52.262;10.498;2023-03-20T14:25:28;19.25;;;11.93;;
30970;SDS011;17651;52.262;10.498;2023-03-20T14:27:58;13.25;;;11.70;;
30970;SDS011;17651;52.262;10.498;2023-03-20T14:32:50;15.23;;;11.85;;
30970;SDS011;17651;52.262;10.498;2023-03-20T14:35:22;15.30;;;11.23;;
30970;SDS011;17651;52.262;10.498;2023-03-20T14:37:38;13.85;;;10.93;;
30970;SDS011;17651;52.262;10.498;2023-03-20T14:40:05;11.00;;;9.90;;
30970;SDS011;17651;52.262;10.498;2023-03-20T14:49:44;14.20;;;10.38;;
30970;SDS011;17651;52.262;10.498;2023-03-20T14:52:08;10.40;;;9.35;;
30970;SDS011;17651;52.262;10.498;2023-03-20T14:54:24;12.73;;;9.77;;
30970;SDS011;17651;52.262;10.498;2023-03-20T14:56:35;10.90;;;9.80;;
30970;SDS011;17651;52.262;10.498;2023-03-20T14:58:49;11.10;;;10.00;;
30970;SDS011;17651;52.262;10.498;2023-03-20T15:01:03;10.82;;;9.73;;
30970;SDS011;17651;52.262;10.498;2023-03-20T15:03:15;32.38;;;20.67;;
30970;SDS011;17651;52.262;10.498;2023-03-20T15:05:27;13.32;;;11.07;;
30970;SDS011;17651;52.262;10.498;2023-03-20T15:07:39;12.63;;;10.88;;
30970;SDS011;17651;52.262;10.498;2023-03-20T15:09:53;13.60;;;11.05;;
30970;SDS011;17651;52.262;10.498;2023-03-20T15:12:05;12.30;;;11.02;;
30970;SDS011;17651;52.262;10.498;2023-03-20T15:14:20;11.88;;;10.68;;